sensor_id;sensor_type;location;lat;lon;timestamp;pressure;altitude;pressure_sealevel;temperature;humidity
9307;BME280;4691;47.612;7.610;2023-02-22T00:01:59;98307.94;;;4.32;100.00
9307;BME280;4691;47.612;7.610;2023-02-22T00:04:49;98300.91;;;4.31;100.00
9307;BME280;4691;47.612;7.610;2023-02-22T00:07:14;98292.91;;;4.33;100.00
9307;BME280;4691;47.612;7.610;2023-02-22T00:09:39;98291.84;;;4.21;100.00
9307;BME280;4691;47.612;7.610;2023-02-22T00:12:05;98293.53;;;4.08;100.00
9307;BME280;4691;47.612;7.610;2023-02-22T00:14:30;98289.53;;;3.86;100.00
9307;BME280;4691;47.612;7.610;2023-02-22T00:16:55;98293.13;;;3.85;100.00
9307;BME280;4691;47.612;7.610;2023-02-22T00:19:23;98301.63;;;3.90;100.00
9307;BME280;4691;47.612;7.610;2023-02-22T00:21:51;98309.16;;;3.82;100.00
9307;BME280;4691;47.612;7.610;2023-02-22T00:24:17;98301.84;;;4.02;100.00
9307;BME280;4691;47.612;7.610;2023-02-22T00:26:52;98248.72;;;4.05;100.00
9307;BME280;4691;47.612;7.610;2023-02-22T00:29:21;98234.47;;;4.07;100.00
9307;BME280;4691;47.612;7.610;2023-02-22T00:31:47;98225.66;;;3.92;100.00
9307;BME280;4691;47.612;7.610;2023-02-22T00:34:13;98235.09;;;3.82;100.00
9307;BME280;4691;47.612;7.610;2023-02-22T00:36:44;98179.53;;;3.82;100.00
9307;BME280;4691;47.612;7.610;2023-02-22T00:39:10;98194.69;;;3.80;100.00
9307;BME280;4691;47.612;7.610;2023-02-22T00:41:35;98203.91;;;3.73;100.00
9307;BME280;4691;47.612;7.610;2023-02-22T00:44:00;98182.41;;;3.93;100.00
9307;BME280;4691;47.612;7.610;2023-02-22T00:46:26;98174.72;;;3.75;100.00
9307;BME280;4691;47.612;7.610;2023-02-22T00:48:51;98193.34;;;3.73;100.00
9307;BME280;4691;47.612;7.610;2023-02-22T00:51:16;98192.50;;;3.73;100.00
9307;BME280;4691;47.612;7.610;2023-02-22T00:53:42;98194.06;;;3.61;100.00
9307;BME280;4691;47.612;7.610;2023-02-22T00:56:07;98207.81;;;3.52;100.00
9307;BME280;4691;47.612;7.610;2023-02-22T00:58:32;98208.78;;;3.51;100.00
9307;BME280;4691;47.612;7.610;2023-02-22T01:00:58;98223.28;;;3.43;100.00
9307;BME280;4691;47.612;7.610;2023-02-22T01:03:23;98235.25;;;3.35;100.00
9307;BME280;4691;47.612;7.610;2023-02-22T01:05:48;98266.13;;;3.34;100.00
9307;BME280;4691;47.612;7.610;2023-02-22T01:08:15;98274.63;;;3.23;100.00
9307;BME280;4691;47.612;7.610;2023-02-22T01:10:42;98197.75;;;3.28;100.00
9307;BME280;4691;47.612;7.610;2023-02-22T01:13:08;98212.41;;;3.34;100.00
9307;BME280;4691;47.612;7.610;2023-02-22T01:15:39;98215.72;;;3.37;100.00
9307;BME280;4691;47.612;7.610;2023-02-22T01:18:05;98210.78;;;3.31;100.00
9307;BME280;4691;47.612;7.610;2023-02-22T01:20:31;98215.31;;;3.29;100.00
9307;BME280;4691;47.612;7.610;2023-02-22T01:22:58;98219.84;;;3.27;100.00
9307;BME280;4691;47.612;7.610;2023-02-22T01:25:29;98213.19;;;3.20;100.00
9307;BME280;4691;47.612;7.610;2023-02-22T01:27:56;98219.88;;;3.41;100.00
9307;BME280;4691;47.612;7.610;2023-02-22T01:30:24;98179.31;;;3.42;100.00
9307;BME280;4691;47.612;7.610;2023-02-22T01:32:50;98178.78;;;3.21;100.00
9307;BME280;4691;47.612;7.610;2023-02-22T01:35:17;98188.66;;;3.18;100.00
9307;BME280;4691;47.612;7.610;2023-02-22T01:37:43;98204.50;;;3.18;100.00
9307;BME280;4691;47.612;7.610;2023-02-22T01:40:13;98219.44;;;3.19;100.00
9307;BME280;4691;47.612;7.610;2023-02-22T01:42:40;98218.34;;;3.07;100.00
9307;BME280;4691;47.612;7.610;2023-02-22T01:50:24;98241.25;;;3.07;100.00
9307;BME280;4691;47.612;7.610;2023-02-22T01:52:50;98234.63;;;2.99;100.00
9307;BME280;4691;47.612;7.610;2023-02-22T01:55:16;98238.09;;;3.00;100.00
9307;BME280;4691;47.612;7.610;2023-02-22T01:57:42;98220.31;;;3.03;100.00
9307;BME280;4691;47.612;7.610;2023-02-22T02:00:13;98213.06;;;3.07;100.00
9307;BME280;4691;47.612;7.610;2023-02-22T02:02:43;98195.06;;;3.14;100.00
9307;BME280;4691;47.612;7.610;2023-02-22T02:05:11;98170.13;;;3.03;100.00
9307;BME280;4691;47.612;7.610;2023-02-22T02:07:37;98167.16;;;2.94;100.00
9307;BME280;4691;47.612;7.610;2023-02-22T02:10:07;98170.63;;;2.94;100.00
9307;BME280;4691;47.612;7.610;2023-02-22T02:12:39;98167.41;;;2.89;100.00
9307;BME280;4691;47.612;7.610;2023-02-22T02:17:48;98197.31;;;2.74;100.00
9307;BME280;4691;47.612;7.610;2023-02-22T02:23:28;98248.44;;;2.73;100.00
9307;BME280;4691;47.612;7.610;2023-02-22T02:34:30;98286.25;;;2.73;100.00
9307;BME280;4691;47.612;7.610;2023-02-22T02:36:58;98282.66;;;2.74;100.00
9307;BME280;4691;47.612;7.610;2023-02-22T02:39:30;98286.06;;;2.76;100.00
9307;BME280;4691;47.612;7.610;2023-02-22T02:41:59;98277.38;;;2.58;100.00
9307;BME280;4691;47.612;7.610;2023-02-22T02:44:43;98287.16;;;2.56;100.00
9307;BME280;4691;47.612;7.610;2023-02-22T02:47:19;98303.16;;;2.53;100.00
9307;BME280;4691;47.612;7.610;2023-02-22T02:49:50;98330.75;;;2.64;100.00
9307;BME280;4691;47.612;7.610;2023-02-22T02:52:20;98346.94;;;2.57;100.00
9307;BME280;4691;47.612;7.610;2023-02-22T02:54:48;98346.50;;;2.49;100.00
9307;BME280;4691;47.612;7.610;2023-02-22T02:57:13;98352.28;;;2.56;100.00
9307;BME280;4691;47.612;7.610;2023-02-22T02:59:38;98353.81;;;2.44;100.00
9307;BME280;4691;47.612;7.610;2023-02-22T03:02:23;98371.16;;;2.48;100.00
9307;BME280;4691;47.612;7.610;2023-02-22T03:10:41;98383.28;;;2.52;100.00
9307;BME280;4691;47.612;7.610;2023-02-22T03:13:42;98383.75;;;2.43;100.00
9307;BME280;4691;47.612;7.610;2023-02-22T03:19:42;98261.84;;;2.36;100.00
9307;BME280;4691;47.612;7.610;2023-02-22T03:22:19;98301.31;;;2.38;100.00
9307;BME280;4691;47.612;7.610;2023-02-22T03:24:58;98309.41;;;2.35;100.00
9307;BME280;4691;47.612;7.610;2023-02-22T03:27:50;98305.09;;;2.34;100.00
9307;BME280;4691;47.612;7.610;2023-02-22T03:30:31;98334.25;;;2.31;100.00
9307;BME280;4691;47.612;7.610;2023-02-22T03:33:04;98338.00;;;2.27;100.00
9307;BME280;4691;47.612;7.610;2023-02-22T03:35:34;98342.16;;;2.31;100.00
9307;BME280;4691;47.612;7.610;2023-02-22T03:38:05;98344.66;;;2.34;100.00
9307;BME280;4691;47.612;7.610;2023-02-22T03:40:34;98333.63;;;2.26;100.00
9307;BME280;4691;47.612;7.610;2023-02-22T03:43:04;98335.53;;;2.24;100.00
9307;BME280;4691;47.612;7.610;2023-02-22T03:45:30;98341.88;;;2.20;100.00
9307;BME280;4691;47.612;7.610;2023-02-22T03:48:05;98336.44;;;2.23;100.00
9307;BME280;4691;47.612;7.610;2023-02-22T03:50:35;98330.91;;;2.27;100.00
9307;BME280;4691;47.612;7.610;2023-02-22T03:53:02;98323.41;;;2.20;100.00
9307;BME280;4691;47.612;7.610;2023-02-22T03:55:28;98325.72;;;2.26;100.00
9307;BME280;4691;47.612;7.610;2023-02-22T03:57:57;98319.81;;;2.38;100.00
9307;BME280;4691;47.612;7.610;2023-02-22T04:00:27;98308.56;;;2.34;100.00
9307;BME280;4691;47.612;7.610;2023-02-22T04:02:54;98308.03;;;2.28;100.00
9307;BME280;4691;47.612;7.610;2023-02-22T04:05:19;98305.56;;;2.25;100.00
9307;BME280;4691;47.612;7.610;2023-02-22T04:07:45;98322.41;;;2.22;100.00
9307;BME280;4691;47.612;7.610;2023-02-22T04:10:11;98330.38;;;2.21;100.00
9307;BME280;4691;47.612;7.610;2023-02-22T04:12:37;98340.69;;;2.25;100.00
9307;BME280;4691;47.612;7.610;2023-02-22T04:15:04;98350.88;;;2.15;100.00
9307;BME280;4691;47.612;7.610;2023-02-22T04:17:30;98364.22;;;2.12;100.00
9307;BME280;4691;47.612;7.610;2023-02-22T04:19:55;98381.91;;;2.10;100.00
9307;BME280;4691;47.612;7.610;2023-02-22T04:22:20;98392.84;;;2.20;100.00
9307;BME280;4691;47.612;7.610;2023-02-22T04:24:46;98388.72;;;2.14;100.00
9307;BME280;4691;47.612;7.610;2023-02-22T04:27:13;98387.50;;;2.04;100.00
9307;BME280;4691;47.612;7.610;2023-02-22T04:29:38;98394.06;;;2.13;100.00
9307;BME280;4691;47.612;7.610;2023-02-22T04:32:04;98392.16;;;2.16;100.00
9307;BME280;4691;47.612;7.610;2023-02-22T04:34:29;98388.97;;;2.10;100.00
9307;BME280;4691;47.612;7.610;2023-02-22T04:36:54;98391.81;;;2.05;100.00
9307;BME280;4691;47.612;7.610;2023-02-22T04:39:20;98387.03;;;1.96;100.00
9307;BME280;4691;47.612;7.610;2023-02-22T04:41:45;98402.22;;;1.91;100.00
9307;BME280;4691;47.612;7.610;2023-02-22T04:44:11;98424.00;;;1.94;100.00
9307;BME280;4691;47.612;7.610;2023-02-22T04:46:37;98424.31;;;1.88;100.00
9307;BME280;4691;47.612;7.610;2023-02-22T04:49:02;98434.03;;;1.88;100.00
9307;BME280;4691;47.612;7.610;2023-02-22T04:51:28;98446.19;;;1.90;100.00
9307;BME280;4691;47.612;7.610;2023-02-22T04:53:53;98453.97;;;1.93;100.00
9307;BME280;4691;47.612;7.610;2023-02-22T04:56:19;98450.47;;;1.93;100.00
9307;BME280;4691;47.612;7.610;2023-02-22T04:58:44;98441.78;;;1.91;100.00
9307;BME280;4691;47.612;7.610;2023-02-22T05:01:09;98440.94;;;1.90;100.00
9307;BME280;4691;47.612;7.610;2023-02-22T05:03:38;98437.41;;;1.90;100.00
9307;BME280;4691;47.612;7.610;2023-02-22T05:06:03;98429.50;;;1.90;100.00
9307;BME280;4691;47.612;7.610;2023-02-22T05:08:29;98431.28;;;1.89;100.00
9307;BME280;4691;47.612;7.610;2023-02-22T05:10:54;98442.00;;;1.86;100.00
9307;BME280;4691;47.612;7.610;2023-02-22T05:13:20;98451.53;;;1.89;100.00
9307;BME280;4691;47.612;7.610;2023-02-22T05:15:45;98452.94;;;1.96;100.00
9307;BME280;4691;47.612;7.610;2023-02-22T05:18:12;98445.81;;;1.98;100.00
9307;BME280;4691;47.612;7.610;2023-02-22T05:20:37;98444.66;;;2.04;100.00
9307;BME280;4691;47.612;7.610;2023-02-22T05:23:02;98429.00;;;2.01;100.00
9307;BME280;4691;47.612;7.610;2023-02-22T05:25:29;98421.84;;;2.03;100.00
9307;BME280;4691;47.612;7.610;2023-02-22T05:27:57;98421.00;;;2.02;100.00
9307;BME280;4691;47.612;7.610;2023-02-22T05:30:26;98429.22;;;1.96;100.00
9307;BME280;4691;47.612;7.610;2023-02-22T05:32:52;98431.13;;;1.92;100.00
9307;BME280;4691;47.612;7.610;2023-02-22T05:35:19;98421.16;;;1.99;100.00
9307;BME280;4691;47.612;7.610;2023-02-22T05:37:45;98423.47;;;1.88;100.00
9307;BME280;4691;47.612;7.610;2023-02-22T05:40:11;98435.72;;;1.89;100.00
9307;BME280;4691;47.612;7.610;2023-02-22T05:42:41;98437.28;;;1.93;100.00
9307;BME280;4691;47.612;7.610;2023-02-22T05:45:07;98435.13;;;2.01;100.00
9307;BME280;4691;47.612;7.610;2023-02-22T05:47:33;98420.00;;;2.05;100.00
9307;BME280;4691;47.612;7.610;2023-02-22T05:49:58;98403.47;;;2.01;100.00
9307;BME280;4691;47.612;7.610;2023-02-22T05:52:23;98399.66;;;1.89;100.00
9307;BME280;4691;47.612;7.610;2023-02-22T05:54:49;98408.34;;;1.91;100.00
9307;BME280;4691;47.612;7.610;2023-02-22T05:57:15;98401.91;;;1.97;100.00
9307;BME280;4691;47.612;7.610;2023-02-22T05:59:40;98408.34;;;1.91;100.00
9307;BME280;4691;47.612;7.610;2023-02-22T06:02:07;98413.56;;;1.93;100.00
9307;BME280;4691;47.612;7.610;2023-02-22T06:04:33;98410.59;;;1.99;100.00
9307;BME280;4691;47.612;7.610;2023-02-22T06:06:58;98389.81;;;1.93;100.00
9307;BME280;4691;47.612;7.610;2023-02-22T06:09:23;98389.50;;;1.99;100.00
9307;BME280;4691;47.612;7.610;2023-02-22T06:11:48;98385.22;;;1.96;100.00
9307;BME280;4691;47.612;7.610;2023-02-22T06:14:14;98376.94;;;2.04;100.00
9307;BME280;4691;47.612;7.610;2023-02-22T06:16:39;98361.50;;;2.14;100.00
9307;BME280;4691;47.612;7.610;2023-02-22T06:19:04;98336.16;;;2.11;100.00
9307;BME280;4691;47.612;7.610;2023-02-22T06:21:29;98332.88;;;2.06;100.00
9307;BME280;4691;47.612;7.610;2023-02-22T06:23:55;98314.72;;;2.17;100.00
9307;BME280;4691;47.612;7.610;2023-02-22T06:26:20;98293.09;;;2.11;100.00
9307;BME280;4691;47.612;7.610;2023-02-22T06:28:47;98284.16;;;2.13;100.00
9307;BME280;4691;47.612;7.610;2023-02-22T06:31:12;98254.03;;;2.17;100.00
9307;BME280;4691;47.612;7.610;2023-02-22T06:33:38;98245.13;;;2.20;100.00
9307;BME280;4691;47.612;7.610;2023-02-22T06:36:03;98224.09;;;2.18;100.00
9307;BME280;4691;47.612;7.610;2023-02-22T06:38:29;98206.31;;;2.22;100.00
9307;BME280;4691;47.612;7.610;2023-02-22T06:40:55;98173.91;;;2.36;100.00
9307;BME280;4691;47.612;7.610;2023-02-22T06:43:21;98132.28;;;2.41;100.00
9307;BME280;4691;47.612;7.610;2023-02-22T06:45:48;98112.03;;;2.42;100.00
9307;BME280;4691;47.612;7.610;2023-02-22T06:48:13;98087.88;;;2.49;100.00
9307;BME280;4691;47.612;7.610;2023-02-22T06:50:39;98065.03;;;2.48;100.00
9307;BME280;4691;47.612;7.610;2023-02-22T06:53:04;98053.38;;;2.52;100.00
9307;BME280;4691;47.612;7.610;2023-02-22T06:55:32;98026.66;;;2.73;100.00
9307;BME280;4691;47.612;7.610;2023-02-22T06:57:58;98006.13;;;2.78;100.00
9307;BME280;4691;47.612;7.610;2023-02-22T07:00:26;97985.75;;;2.80;100.00
9307;BME280;4691;47.612;7.610;2023-02-22T07:02:52;97966.63;;;2.91;100.00
9307;BME280;4691;47.612;7.610;2023-02-22T07:05:19;97953.50;;;2.89;100.00
9307;BME280;4691;47.612;7.610;2023-02-22T07:07:47;97954.66;;;2.99;100.00
9307;BME280;4691;47.612;7.610;2023-02-22T07:10:32;97929.34;;;2.95;100.00
9307;BME280;4691;47.612;7.610;2023-02-22T07:12:58;97919.38;;;3.00;100.00
9307;BME280;4691;47.612;7.610;2023-02-22T07:15:25;97903.53;;;3.15;100.00
9307;BME280;4691;47.612;7.610;2023-02-22T07:17:51;97892.78;;;3.03;100.00
9307;BME280;4691;47.612;7.610;2023-02-22T07:20:18;97879.56;;;3.18;100.00
9307;BME280;4691;47.612;7.610;2023-02-22T07:22:45;97891.44;;;3.11;100.00
9307;BME280;4691;47.612;7.610;2023-02-22T07:25:10;97880.88;;;3.25;100.00
9307;BME280;4691;47.612;7.610;2023-02-22T07:27:37;97876.69;;;3.35;100.00
9307;BME280;4691;47.612;7.610;2023-02-22T07:30:04;97855.16;;;3.41;100.00
9307;BME280;4691;47.612;7.610;2023-02-22T07:32:30;97834.00;;;3.41;100.00
9307;BME280;4691;47.612;7.610;2023-02-22T07:34:55;97829.19;;;3.48;100.00
9307;BME280;4691;47.612;7.610;2023-02-22T07:37:20;97829.81;;;3.52;100.00
9307;BME280;4691;47.612;7.610;2023-02-22T07:39:45;97840.34;;;3.66;100.00
9307;BME280;4691;47.612;7.610;2023-02-22T07:42:11;97829.81;;;3.79;100.00
9307;BME280;4691;47.612;7.610;2023-02-22T07:44:36;97805.72;;;3.83;100.00
9307;BME280;4691;47.612;7.610;2023-02-22T07:47:01;97804.69;;;3.99;100.00
9307;BME280;4691;47.612;7.610;2023-02-22T07:49:27;97799.72;;;4.07;100.00
9307;BME280;4691;47.612;7.610;2023-02-22T07:51:52;97795.72;;;4.14;100.00
9307;BME280;4691;47.612;7.610;2023-02-22T07:54:18;97797.41;;;4.15;100.00
9307;BME280;4691;47.612;7.610;2023-02-22T07:56:44;97783.88;;;4.07;100.00
9307;BME280;4691;47.612;7.610;2023-02-22T07:59:10;97779.84;;;4.14;100.00
9307;BME280;4691;47.612;7.610;2023-02-22T08:01:35;97779.63;;;4.17;100.00
9307;BME280;4691;47.612;7.610;2023-02-22T08:04:00;97778.91;;;4.41;100.00
9307;BME280;4691;47.612;7.610;2023-02-22T08:06:26;97784.28;;;4.52;100.00
9307;BME280;4691;47.612;7.610;2023-02-22T08:08:52;97795.41;;;4.44;100.00
9307;BME280;4691;47.612;7.610;2023-02-22T08:11:17;97833.22;;;4.59;100.00
9307;BME280;4691;47.612;7.610;2023-02-22T08:13:42;97832.38;;;4.46;100.00
9307;BME280;4691;47.612;7.610;2023-02-22T08:16:08;97848.56;;;4.54;100.00
9307;BME280;4691;47.612;7.610;2023-02-22T08:18:33;97847.19;;;4.61;100.00
9307;BME280;4691;47.612;7.610;2023-02-22T08:20:58;97854.81;;;4.78;100.00
9307;BME280;4691;47.612;7.610;2023-02-22T08:23:24;97852.25;;;4.90;100.00
9307;BME280;4691;47.612;7.610;2023-02-22T08:25:51;97856.69;;;5.02;100.00
9307;BME280;4691;47.612;7.610;2023-02-22T08:28:18;97855.59;;;5.30;100.00
9307;BME280;4691;47.612;7.610;2023-02-22T08:30:45;97856.19;;;5.34;100.00
9307;BME280;4691;47.612;7.610;2023-02-22T08:33:13;97870.38;;;5.45;100.00
9307;BME280;4691;47.612;7.610;2023-02-22T08:35:41;97876.28;;;5.25;100.00
9307;BME280;4691;47.612;7.610;2023-02-22T08:38:07;97874.06;;;5.80;100.00
9307;BME280;4691;47.612;7.610;2023-02-22T08:40:35;97875.47;;;5.73;100.00
9307;BME280;4691;47.612;7.610;2023-02-22T08:43:02;97878.44;;;6.05;100.00
9307;BME280;4691;47.612;7.610;2023-02-22T08:45:27;97884.84;;;6.38;100.00
9307;BME280;4691;47.612;7.610;2023-02-22T08:47:53;97896.63;;;6.69;100.00
9307;BME280;4691;47.612;7.610;2023-02-22T08:50:22;97908.84;;;6.71;100.00
9307;BME280;4691;47.612;7.610;2023-02-22T08:52:49;97918.50;;;6.72;100.00
9307;BME280;4691;47.612;7.610;2023-02-22T08:55:18;97914.00;;;6.62;100.00
9307;BME280;4691;47.612;7.610;2023-02-22T08:57:44;97920.84;;;7.11;100.00
9307;BME280;4691;47.612;7.610;2023-02-22T09:00:10;97931.94;;;6.93;100.00
9307;BME280;4691;47.612;7.610;2023-02-22T09:02:35;97929.56;;;7.35;100.00
9307;BME280;4691;47.612;7.610;2023-02-22T09:05:00;97952.28;;;7.62;100.00
9307;BME280;4691;47.612;7.610;2023-02-22T09:07:26;97971.13;;;7.93;100.00
9307;BME280;4691;47.612;7.610;2023-02-22T09:09:51;97993.75;;;7.87;100.00
9307;BME280;4691;47.612;7.610;2023-02-22T09:12:16;97985.88;;;7.85;100.00
9307;BME280;4691;47.612;7.610;2023-02-22T09:14:42;98000.72;;;8.11;100.00
9307;BME280;4691;47.612;7.610;2023-02-22T09:17:07;98054.06;;;8.32;100.00
9307;BME280;4691;47.612;7.610;2023-02-22T09:19:33;98077.78;;;8.57;100.00
9307;BME280;4691;47.612;7.610;2023-02-22T09:21:58;98084.56;;;8.50;100.00
9307;BME280;4691;47.612;7.610;2023-02-22T09:24:24;98083.75;;;8.38;100.00
9307;BME280;4691;47.612;7.610;2023-02-22T09:26:50;98116.97;;;8.78;100.00
9307;BME280;4691;47.612;7.610;2023-02-22T09:29:22;98124.78;;;8.47;100.00
9307;BME280;4691;47.612;7.610;2023-02-22T09:31:49;98118.78;;;9.21;100.00
9307;BME280;4691;47.612;7.610;2023-02-22T09:34:15;98162.22;;;9.11;100.00
9307;BME280;4691;47.612;7.610;2023-02-22T09:36:41;98154.03;;;9.56;100.00
9307;BME280;4691;47.612;7.610;2023-02-22T09:39:07;98161.94;;;9.89;100.00
9307;BME280;4691;47.612;7.610;2023-02-22T09:41:44;98176.22;;;10.20;100.00
9307;BME280;4691;47.612;7.610;2023-02-22T09:46:40;98210.84;;;10.93;100.00
9307;BME280;4691;47.612;7.610;2023-02-22T09:49:29;98243.84;;;11.22;100.00
9307;BME280;4691;47.612;7.610;2023-02-22T09:52:17;98235.38;;;10.36;100.00
9307;BME280;4691;47.612;7.610;2023-02-22T09:54:53;98216.72;;;10.46;100.00
9307;BME280;4691;47.612;7.610;2023-02-22T09:57:30;98247.91;;;10.97;100.00
9307;BME280;4691;47.612;7.610;2023-02-22T10:00:03;98235.25;;;10.68;100.00
9307;BME280;4691;47.612;7.610;2023-02-22T10:03:06;98262.50;;;11.33;100.00
9307;BME280;4691;47.612;7.610;2023-02-22T10:05:38;98271.56;;;11.71;100.00
9307;BME280;4691;47.612;7.610;2023-02-22T10:08:16;98293.56;;;12.24;100.00
9307;BME280;4691;47.612;7.610;2023-02-22T10:10:45;98325.16;;;12.49;100.00
9307;BME280;4691;47.612;7.610;2023-02-22T10:25:32;98435.00;;;15.17;100.00
9307;BME280;4691;47.612;7.610;2023-02-22T10:27:54;98463.50;;;15.02;100.00
9307;BME280;4691;47.612;7.610;2023-02-22T10:30:25;98481.38;;;16.91;100.00
9307;BME280;4691;47.612;7.610;2023-02-22T10:35:46;98495.09;;;15.18;100.00
9307;BME280;4691;47.612;7.610;2023-02-22T10:38:23;98498.13;;;16.44;100.00
9307;BME280;4691;47.612;7.610;2023-02-22T10:41:02;98503.63;;;16.26;100.00
9307;BME280;4691;47.612;7.610;2023-02-22T10:43:38;98482.13;;;13.86;100.00
9307;BME280;4691;47.612;7.610;2023-02-22T10:46:07;98427.06;;;13.72;100.00
9307;BME280;4691;47.612;7.610;2023-02-22T10:48:37;98455.94;;;15.76;100.00
9307;BME280;4691;47.612;7.610;2023-02-22T10:51:06;98473.31;;;14.67;100.00
9307;BME280;4691;47.612;7.610;2023-02-22T10:53:33;98458.13;;;15.02;100.00
9307;BME280;4691;47.612;7.610;2023-02-22T10:56:18;98464.94;;;15.66;100.00
9307;BME280;4691;47.612;7.610;2023-02-22T10:58:57;98456.78;;;15.50;100.00
9307;BME280;4691;47.612;7.610;2023-02-22T11:04:15;98495.56;;;17.17;100.00
9307;BME280;4691;47.612;7.610;2023-02-22T11:07:28;98500.53;;;15.44;100.00
9307;BME280;4691;47.612;7.610;2023-02-22T11:10:04;98498.72;;;17.46;100.00
9307;BME280;4691;47.612;7.610;2023-02-22T11:12:32;98507.66;;;16.72;100.00
9307;BME280;4691;47.612;7.610;2023-02-22T11:17:45;98463.31;;;15.21;100.00
9307;BME280;4691;47.612;7.610;2023-02-22T11:20:20;98446.53;;;14.84;100.00
9307;BME280;4691;47.612;7.610;2023-02-22T11:22:53;98465.16;;;16.16;100.00
9307;BME280;4691;47.612;7.610;2023-02-22T11:25:23;98475.59;;;16.10;100.00
9307;BME280;4691;47.612;7.610;2023-02-22T11:27:50;98478.59;;;16.58;100.00
9307;BME280;4691;47.612;7.610;2023-02-22T11:30:32;98480.72;;;15.09;100.00
9307;BME280;4691;47.612;7.610;2023-02-22T11:35:57;98485.84;;;15.20;100.00
9307;BME280;4691;47.612;7.610;2023-02-22T11:38:27;98474.97;;;16.92;100.00
9307;BME280;4691;47.612;7.610;2023-02-22T11:41:12;98476.78;;;17.16;100.00
9307;BME280;4691;47.612;7.610;2023-02-22T11:43:42;98470.94;;;15.52;100.00
9307;BME280;4691;47.612;7.610;2023-02-22T11:48:59;98412.63;;;14.91;100.00
9307;BME280;4691;47.612;7.610;2023-02-22T12:05:46;98414.00;;;15.21;100.00
9307;BME280;4691;47.612;7.610;2023-02-22T12:11:18;98376.19;;;14.43;100.00
9307;BME280;4691;47.612;7.610;2023-02-22T12:16:58;98378.59;;;14.64;100.00
9307;BME280;4691;47.612;7.610;2023-02-22T12:19:49;98342.53;;;13.67;100.00
9307;BME280;4691;47.612;7.610;2023-02-22T12:22:21;98339.19;;;14.80;100.00
9307;BME280;4691;47.612;7.610;2023-02-22T12:27:25;98319.28;;;13.93;100.00
9307;BME280;4691;47.612;7.610;2023-02-22T12:29:59;98288.41;;;14.15;100.00
9307;BME280;4691;47.612;7.610;2023-02-22T12:32:39;98269.75;;;14.58;100.00
9307;BME280;4691;47.612;7.610;2023-02-22T12:35:24;98275.44;;;14.11;100.00
9307;BME280;4691;47.612;7.610;2023-02-22T12:40:33;98251.63;;;14.16;100.00
9307;BME280;4691;47.612;7.610;2023-02-22T12:45:38;98241.06;;;14.23;100.00
9307;BME280;4691;47.612;7.610;2023-02-22T12:48:18;98226.75;;;13.96;100.00
9307;BME280;4691;47.612;7.610;2023-02-22T12:50:48;98227.16;;;14.27;100.00
9307;BME280;4691;47.612;7.610;2023-02-22T12:53:20;98228.44;;;14.41;100.00
9307;BME280;4691;47.612;7.610;2023-02-22T12:55:51;98222.63;;;14.54;100.00
9307;BME280;4691;47.612;7.610;2023-02-22T13:00:55;98228.25;;;14.43;100.00
9307;BME280;4691;47.612;7.610;2023-02-22T13:03:40;98215.56;;;14.27;100.00
9307;BME280;4691;47.612;7.610;2023-02-22T13:20:17;98111.78;;;14.08;100.00
9307;BME280;4691;47.612;7.610;2023-02-22T13:22:55;98128.75;;;14.43;100.00
9307;BME280;4691;47.612;7.610;2023-02-22T13:25:41;98147.66;;;14.59;100.00
9307;BME280;4691;47.612;7.610;2023-02-22T13:28:15;98159.25;;;14.86;100.00
9307;BME280;4691;47.612;7.610;2023-02-22T13:30:50;98169.06;;;14.69;100.00
9307;BME280;4691;47.612;7.610;2023-02-22T13:33:27;98170.72;;;14.62;100.00
9307;BME280;4691;47.612;7.610;2023-02-22T13:42:18;98183.38;;;14.69;100.00
9307;BME280;4691;47.612;7.610;2023-02-22T13:47:43;98159.25;;;14.25;100.00
9307;BME280;4691;47.612;7.610;2023-02-22T13:53:09;98167.34;;;14.94;100.00
9307;BME280;4691;47.612;7.610;2023-02-22T13:55:37;98200.09;;;15.32;100.00
9307;BME280;4691;47.612;7.610;2023-02-22T13:58:07;98217.16;;;14.98;100.00
9307;BME280;4691;47.612;7.610;2023-02-22T14:00:47;98199.06;;;15.24;100.00
9307;BME280;4691;47.612;7.610;2023-02-22T14:08:04;98165.69;;;14.06;100.00
9307;BME280;4691;47.612;7.610;2023-02-22T14:10:54;98140.59;;;13.98;100.00
9307;BME280;4691;47.612;7.610;2023-02-22T14:16:22;98124.47;;;13.98;100.00
9307;BME280;4691;47.612;7.610;2023-02-22T14:21:54;98108.88;;;13.75;100.00
9307;BME280;4691;47.612;7.610;2023-02-22T14:24:22;98112.06;;;13.79;100.00
9307;BME280;4691;47.612;7.610;2023-02-22T14:26:57;98125.72;;;13.85;100.00
9307;BME280;4691;47.612;7.610;2023-02-22T14:29:24;98118.53;;;13.68;100.00
9307;BME280;4691;47.612;7.610;2023-02-22T14:34:46;98100.09;;;13.73;100.00
9307;BME280;4691;47.612;7.610;2023-02-22T14:37:25;98096.31;;;13.58;100.00
9307;BME280;4691;47.612;7.610;2023-02-22T14:43:01;98084.16;;;13.54;100.00
9307;BME280;4691;47.612;7.610;2023-02-22T14:45:30;98079.44;;;13.47;100.00
9307;BME280;4691;47.612;7.610;2023-02-22T14:51:03;98076.91;;;13.46;100.00
9307;BME280;4691;47.612;7.610;2023-02-22T14:53:41;98062.66;;;13.27;100.00
9307;BME280;4691;47.612;7.610;2023-02-22T14:56:21;98052.56;;;13.47;100.00
9307;BME280;4691;47.612;7.610;2023-02-22T14:58:52;98049.16;;;13.37;100.00
9307;BME280;4691;47.612;7.610;2023-02-22T15:01:28;98053.81;;;13.35;100.00
9307;BME280;4691;47.612;7.610;2023-02-22T15:04:15;98044.88;;;13.26;100.00
9307;BME280;4691;47.612;7.610;2023-02-22T15:06:40;98044.00;;;13.26;100.00
9307;BME280;4691;47.612;7.610;2023-02-22T15:09:17;98034.56;;;13.22;100.00
9307;BME280;4691;47.612;7.610;2023-02-22T15:14:27;98033.88;;;13.20;100.00
9307;BME280;4691;47.612;7.610;2023-02-22T15:16:57;98036.47;;;13.12;100.00
9307;BME280;4691;47.612;7.610;2023-02-22T15:19:26;98033.03;;;13.01;100.00
9307;BME280;4691;47.612;7.610;2023-02-22T15:21:53;98032.97;;;12.93;100.00
9307;BME280;4691;47.612;7.610;2023-02-22T15:24:29;98034.50;;;12.78;100.00
9307;BME280;4691;47.612;7.610;2023-02-22T15:27:03;98029.06;;;12.70;100.00
9307;BME280;4691;47.612;7.610;2023-02-22T15:29:37;98021.31;;;12.67;100.00
9307;BME280;4691;47.612;7.610;2023-02-22T15:32:34;98020.41;;;12.76;100.00
9307;BME280;4691;47.612;7.610;2023-02-22T15:35:14;98012.53;;;12.74;100.00
9307;BME280;4691;47.612;7.610;2023-02-22T15:37:45;98005.00;;;12.60;100.00
9307;BME280;4691;47.612;7.610;2023-02-22T15:40:18;98009.81;;;12.56;100.00
9307;BME280;4691;47.612;7.610;2023-02-22T15:42:47;98012.91;;;12.61;100.00
9307;BME280;4691;47.612;7.610;2023-02-22T15:45:18;98013.09;;;12.68;100.00
9307;BME280;4691;47.612;7.610;2023-02-22T15:47:48;98004.16;;;12.59;100.00